sensor_id;sensor_type;location;lat;lon;timestamp;P1;durP1;ratioP1;P2;durP2;ratioP2
73132;SDS011;61320;52.008;4.530;2023-01-15T00:01:00;8.55;;;5.28;;
73132;SDS011;61320;52.008;4.530;2023-01-15T00:03:27;7.55;;;4.60;;
73132;SDS011;61320;52.008;4.530;2023-01-15T00:05:52;9.97;;;5.97;;
73132;SDS011;61320;52.008;4.530;2023-01-15T00:08:18;9.35;;;5.61;;
73132;SDS011;61320;52.008;4.530;2023-01-15T00:10:44;9.75;;;5.86;;
73132;SDS011;61320;52.008;4.530;2023-01-15T00:13:10;9.18;;;5.55;;
73132;SDS011;61320;52.008;4.530;2023-01-15T00:15:35;10.02;;;6.06;;
73132;SDS011;61320;52.008;4.530;2023-01-15T00:18:01;9.40;;;5.65;;
73132;SDS011;61320;52.008;4.530;2023-01-15T00:20:28;8.82;;;5.32;;
73132;SDS011;61320;52.008;4.530;2023-01-15T00:22:53;9.30;;;5.65;;
73132;SDS011;61320;52.008;4.530;2023-01-15T00:25:19;8.82;;;5.46;;
73132;SDS011;61320;52.008;4.530;2023-01-15T00:28:03;8.85;;;5.48;;
73132;SDS011;61320;52.008;4.530;2023-01-15T00:30:29;9.54;;;5.81;;
73132;SDS011;61320;52.008;4.530;2023-01-15T00:32:54;8.93;;;5.45;;
73132;SDS011;61320;52.008;4.530;2023-01-15T00:35:22;8.53;;;5.21;;
73132;SDS011;61320;52.008;4.530;2023-01-15T00:37:48;9.12;;;5.53;;
73132;SDS011;61320;52.008;4.530;2023-01-15T00:40:15;8.93;;;5.43;;
73132;SDS011;61320;52.008;4.530;2023-01-15T00:42:43;7.97;;;4.92;;
73132;SDS011;61320;52.008;4.530;2023-01-15T00:45:09;7.61;;;4.78;;
73132;SDS011;61320;52.008;4.530;2023-01-15T00:47:39;7.93;;;4.98;;
73132;SDS011;61320;52.008;4.530;2023-01-15T00:50:07;7.96;;;4.95;;
73132;SDS011;61320;52.008;4.530;2023-01-15T00:52:35;8.27;;;5.15;;
73132;SDS011;61320;52.008;4.530;2023-01-15T00:55:01;8.60;;;5.36;;
73132;SDS011;61320;52.008;4.530;2023-01-15T00:57:27;8.22;;;5.11;;
73132;SDS011;61320;52.008;4.530;2023-01-15T00:59:53;8.09;;;5.07;;
73132;SDS011;61320;52.008;4.530;2023-01-15T01:02:18;8.14;;;5.06;;
73132;SDS011;61320;52.008;4.530;2023-01-15T01:04:44;8.48;;;5.15;;
73132;SDS011;61320;52.008;4.530;2023-01-15T01:07:10;9.23;;;5.64;;
73132;SDS011;61320;52.008;4.530;2023-01-15T01:09:36;8.38;;;5.14;;
73132;SDS011;61320;52.008;4.530;2023-01-15T01:12:02;8.82;;;5.40;;
73132;SDS011;61320;52.008;4.530;2023-01-15T01:14:27;8.69;;;5.40;;
73132;SDS011;61320;52.008;4.530;2023-01-15T01:16:53;8.37;;;5.25;;
73132;SDS011;61320;52.008;4.530;2023-01-15T01:19:19;8.36;;;5.20;;
73132;SDS011;61320;52.008;4.530;2023-01-15T01:21:47;8.33;;;5.03;;
73132;SDS011;61320;52.008;4.530;2023-01-15T01:24:14;8.52;;;5.15;;
73132;SDS011;61320;52.008;4.530;2023-01-15T01:26:41;9.64;;;5.78;;
73132;SDS011;61320;52.008;4.530;2023-01-15T01:29:12;10.26;;;6.16;;
73132;SDS011;61320;52.008;4.530;2023-01-15T01:31:39;9.69;;;5.89;;
73132;SDS011;61320;52.008;4.530;2023-01-15T01:34:04;8.46;;;5.17;;
73132;SDS011;61320;52.008;4.530;2023-01-15T01:36:34;8.59;;;5.24;;
73132;SDS011;61320;52.008;4.530;2023-01-15T01:39:02;9.03;;;5.41;;
73132;SDS011;61320;52.008;4.530;2023-01-15T01:41:30;9.75;;;5.86;;
73132;SDS011;61320;52.008;4.530;2023-01-15T01:43:57;9.08;;;5.54;;
73132;SDS011;61320;52.008;4.530;2023-01-15T01:46:29;8.89;;;5.43;;
73132;SDS011;61320;52.008;4.530;2023-01-15T01:48:57;8.77;;;5.37;;
73132;SDS011;61320;52.008;4.530;2023-01-15T01:51:28;8.31;;;5.06;;
73132;SDS011;61320;52.008;4.530;2023-01-15T01:54:01;8.60;;;5.25;;
73132;SDS011;61320;52.008;4.530;2023-01-15T01:56:28;8.42;;;5.15;;
73132;SDS011;61320;52.008;4.530;2023-01-15T01:58:58;7.51;;;4.62;;
73132;SDS011;61320;52.008;4.530;2023-01-15T02:01:24;7.89;;;4.86;;
73132;SDS011;61320;52.008;4.530;2023-01-15T02:03:50;8.30;;;5.17;;
73132;SDS011;61320;52.008;4.530;2023-01-15T02:06:18;8.17;;;4.99;;
73132;SDS011;61320;52.008;4.530;2023-01-15T02:08:44;7.68;;;4.68;;
73132;SDS011;61320;52.008;4.530;2023-01-15T02:11:16;7.86;;;4.76;;
73132;SDS011;61320;52.008;4.530;2023-01-15T02:13:47;9.17;;;5.48;;
73132;SDS011;61320;52.008;4.530;2023-01-15T02:16:44;8.19;;;4.91;;
73132;SDS011;61320;52.008;4.530;2023-01-15T02:27:38;9.33;;;5.64;;
73132;SDS011;61320;52.008;4.530;2023-01-15T02:30:18;8.12;;;5.01;;
73132;SDS011;61320;52.008;4.530;2023-01-15T02:32:57;8.07;;;5.05;;
73132;SDS011;61320;52.008;4.530;2023-01-15T02:35:32;7.23;;;4.53;;
73132;SDS011;61320;52.008;4.530;2023-01-15T02:38:04;6.98;;;4.35;;
73132;SDS011;61320;52.008;4.530;2023-01-15T02:40:35;7.63;;;4.73;;
73132;SDS011;61320;52.008;4.530;2023-01-15T02:43:04;8.95;;;5.44;;
73132;SDS011;61320;52.008;4.530;2023-01-15T02:45:33;8.70;;;5.23;;
73132;SDS011;61320;52.008;4.530;2023-01-15T02:48:11;8.42;;;5.09;;
73132;SDS011;61320;52.008;4.530;2023-01-15T02:50:39;8.11;;;4.88;;
73132;SDS011;61320;52.008;4.530;2023-01-15T02:53:11;9.03;;;5.48;;
73132;SDS011;61320;52.008;4.530;2023-01-15T02:55:45;8.61;;;5.24;;
73132;SDS011;61320;52.008;4.530;2023-01-15T02:58:20;7.89;;;4.82;;
73132;SDS011;61320;52.008;4.530;2023-01-15T03:00:53;8.59;;;5.25;;
73132;SDS011;61320;52.008;4.530;2023-01-15T03:03:30;9.30;;;5.59;;
73132;SDS011;61320;52.008;4.530;2023-01-15T03:08:37;8.53;;;5.23;;
73132;SDS011;61320;52.008;4.530;2023-01-15T03:13:37;7.74;;;4.75;;
73132;SDS011;61320;52.008;4.530;2023-01-15T03:19:16;8.32;;;5.09;;
73132;SDS011;61320;52.008;4.530;2023-01-15T03:22:11;8.38;;;5.11;;
73132;SDS011;61320;52.008;4.530;2023-01-15T03:24:48;8.61;;;5.25;;
73132;SDS011;61320;52.008;4.530;2023-01-15T03:27:20;8.51;;;5.12;;
73132;SDS011;61320;52.008;4.530;2023-01-15T03:29:47;8.26;;;5.00;;
73132;SDS011;61320;52.008;4.530;2023-01-15T03:32:18;7.65;;;4.68;;
73132;SDS011;61320;52.008;4.530;2023-01-15T03:34:49;7.74;;;4.77;;
73132;SDS011;61320;52.008;4.530;2023-01-15T03:37:20;8.00;;;4.89;;
73132;SDS011;61320;52.008;4.530;2023-01-15T03:39:49;9.87;;;5.96;;
73132;SDS011;61320;52.008;4.530;2023-01-15T03:47:59;10.19;;;6.05;;
73132;SDS011;61320;52.008;4.530;2023-01-15T03:50:39;8.14;;;4.85;;
73132;SDS011;61320;52.008;4.530;2023-01-15T03:53:13;8.78;;;5.22;;
73132;SDS011;61320;52.008;4.530;2023-01-15T03:56:06;8.09;;;4.93;;
73132;SDS011;61320;52.008;4.530;2023-01-15T04:01:27;7.58;;;4.73;;
73132;SDS011;61320;52.008;4.530;2023-01-15T04:03:58;8.66;;;5.28;;
73132;SDS011;61320;52.008;4.530;2023-01-15T04:06:27;8.35;;;5.03;;
73132;SDS011;61320;52.008;4.530;2023-01-15T04:08:55;7.95;;;4.81;;
73132;SDS011;61320;52.008;4.530;2023-01-15T04:11:23;8.24;;;4.97;;
73132;SDS011;61320;52.008;4.530;2023-01-15T04:13:50;7.82;;;4.75;;
73132;SDS011;61320;52.008;4.530;2023-01-15T04:16:31;7.67;;;4.74;;
73132;SDS011;61320;52.008;4.530;2023-01-15T04:18:57;8.24;;;5.09;;
73132;SDS011;61320;52.008;4.530;2023-01-15T04:21:23;7.63;;;4.70;;
73132;SDS011;61320;52.008;4.530;2023-01-15T04:23:49;8.38;;;5.10;;
73132;SDS011;61320;52.008;4.530;2023-01-15T04:26:15;8.10;;;4.94;;
73132;SDS011;61320;52.008;4.530;2023-01-15T04:28:41;8.69;;;5.30;;
73132;SDS011;61320;52.008;4.530;2023-01-15T04:31:09;8.00;;;4.85;;
73132;SDS011;61320;52.008;4.530;2023-01-15T04:33:35;8.04;;;4.92;;
73132;SDS011;61320;52.008;4.530;2023-01-15T04:36:01;7.84;;;4.78;;
73132;SDS011;61320;52.008;4.530;2023-01-15T04:38:27;8.72;;;5.31;;
73132;SDS011;61320;52.008;4.530;2023-01-15T04:40:53;7.68;;;4.74;;
73132;SDS011;61320;52.008;4.530;2023-01-15T04:43:37;6.79;;;4.23;;
73132;SDS011;61320;52.008;4.530;2023-01-15T04:46:22;7.99;;;4.90;;
73132;SDS011;61320;52.008;4.530;2023-01-15T04:48:48;7.13;;;4.39;;
73132;SDS011;61320;52.008;4.530;2023-01-15T04:51:14;6.61;;;4.12;;
73132;SDS011;61320;52.008;4.530;2023-01-15T04:53:39;7.08;;;4.37;;
73132;SDS011;61320;52.008;4.530;2023-01-15T04:56:05;7.56;;;4.62;;
73132;SDS011;61320;52.008;4.530;2023-01-15T04:58:31;7.28;;;4.45;;
73132;SDS011;61320;52.008;4.530;2023-01-15T05:00:57;7.80;;;4.74;;
73132;SDS011;61320;52.008;4.530;2023-01-15T05:03:29;7.01;;;4.30;;
73132;SDS011;61320;52.008;4.530;2023-01-15T05:05:59;6.88;;;4.25;;
73132;SDS011;61320;52.008;4.530;2023-01-15T05:08:26;5.83;;;3.60;;
73132;SDS011;61320;52.008;4.530;2023-01-15T05:10:52;7.16;;;4.38;;
73132;SDS011;61320;52.008;4.530;2023-01-15T05:13:17;7.24;;;4.38;;
73132;SDS011;61320;52.008;4.530;2023-01-15T05:15:43;6.84;;;4.10;;
73132;SDS011;61320;52.008;4.530;2023-01-15T05:18:10;7.56;;;4.48;;
73132;SDS011;61320;52.008;4.530;2023-01-15T05:20:39;7.10;;;4.18;;
73132;SDS011;61320;52.008;4.530;2023-01-15T05:23:06;7.64;;;4.48;;
73132;SDS011;61320;52.008;4.530;2023-01-15T05:25:31;7.57;;;4.46;;
73132;SDS011;61320;52.008;4.530;2023-01-15T05:27:57;7.42;;;4.38;;
73132;SDS011;61320;52.008;4.530;2023-01-15T05:30:22;7.22;;;4.28;;
73132;SDS011;61320;52.008;4.530;2023-01-15T05:32:48;6.99;;;4.20;;
73132;SDS011;61320;52.008;4.530;2023-01-15T05:35:13;6.35;;;3.83;;
73132;SDS011;61320;52.008;4.530;2023-01-15T05:37:39;6.59;;;4.04;;
73132;SDS011;61320;52.008;4.530;2023-01-15T05:40:05;6.47;;;3.95;;
73132;SDS011;61320;52.008;4.530;2023-01-15T05:42:31;7.69;;;4.65;;
73132;SDS011;61320;52.008;4.530;2023-01-15T05:44:56;6.89;;;4.19;;
73132;SDS011;61320;52.008;4.530;2023-01-15T05:47:21;6.34;;;3.87;;
73132;SDS011;61320;52.008;4.530;2023-01-15T05:49:47;5.77;;;3.52;;
73132;SDS011;61320;52.008;4.530;2023-01-15T05:52:14;6.14;;;3.81;;
73132;SDS011;61320;52.008;4.530;2023-01-15T05:54:40;6.00;;;3.73;;
73132;SDS011;61320;52.008;4.530;2023-01-15T05:57:06;6.45;;;3.97;;
73132;SDS011;61320;52.008;4.530;2023-01-15T05:59:34;7.06;;;4.36;;
73132;SDS011;61320;52.008;4.530;2023-01-15T06:02:00;5.88;;;3.68;;
73132;SDS011;61320;52.008;4.530;2023-01-15T06:04:25;6.25;;;3.91;;
73132;SDS011;61320;52.008;4.530;2023-01-15T06:06:51;7.57;;;4.67;;
73132;SDS011;61320;52.008;4.530;2023-01-15T06:09:18;6.93;;;4.21;;
73132;SDS011;61320;52.008;4.530;2023-01-15T06:11:47;6.42;;;3.92;;
73132;SDS011;61320;52.008;4.530;2023-01-15T06:14:13;6.86;;;4.14;;
73132;SDS011;61320;52.008;4.530;2023-01-15T06:16:39;7.01;;;4.25;;
73132;SDS011;61320;52.008;4.530;2023-01-15T06:19:05;7.47;;;4.54;;
73132;SDS011;61320;52.008;4.530;2023-01-15T06:21:32;7.84;;;4.70;;
73132;SDS011;61320;52.008;4.530;2023-01-15T06:23:59;7.51;;;4.50;;
73132;SDS011;61320;52.008;4.530;2023-01-15T06:26:26;8.12;;;4.82;;
73132;SDS011;61320;52.008;4.530;2023-01-15T06:28:52;8.45;;;5.02;;
73132;SDS011;61320;52.008;4.530;2023-01-15T06:31:19;6.82;;;4.14;;
73132;SDS011;61320;52.008;4.530;2023-01-15T06:33:46;6.77;;;4.09;;
73132;SDS011;61320;52.008;4.530;2023-01-15T06:36:12;7.51;;;4.52;;
73132;SDS011;61320;52.008;4.530;2023-01-15T06:38:40;7.13;;;4.28;;
73132;SDS011;61320;52.008;4.530;2023-01-15T06:41:08;6.02;;;3.62;;
73132;SDS011;61320;52.008;4.530;2023-01-15T06:43:56;7.66;;;4.60;;
73132;SDS011;61320;52.008;4.530;2023-01-15T06:46:45;7.29;;;4.37;;
73132;SDS011;61320;52.008;4.530;2023-01-15T06:49:30;8.36;;;4.97;;
73132;SDS011;61320;52.008;4.530;2023-01-15T06:51:57;7.73;;;4.57;;
73132;SDS011;61320;52.008;4.530;2023-01-15T06:54:23;8.35;;;4.87;;
73132;SDS011;61320;52.008;4.530;2023-01-15T06:56:49;7.85;;;4.62;;
73132;SDS011;61320;52.008;4.530;2023-01-15T06:59:15;7.98;;;4.71;;
73132;SDS011;61320;52.008;4.530;2023-01-15T07:01:40;8.32;;;4.96;;
73132;SDS011;61320;52.008;4.530;2023-01-15T07:04:06;7.66;;;4.57;;
73132;SDS011;61320;52.008;4.530;2023-01-15T07:06:31;7.64;;;4.50;;
73132;SDS011;61320;52.008;4.530;2023-01-15T07:08:57;8.76;;;5.15;;
73132;SDS011;61320;52.008;4.530;2023-01-15T07:11:22;8.53;;;5.02;;
73132;SDS011;61320;52.008;4.530;2023-01-15T07:13:48;8.39;;;4.91;;
73132;SDS011;61320;52.008;4.530;2023-01-15T07:16:14;9.29;;;5.40;;
73132;SDS011;61320;52.008;4.530;2023-01-15T07:18:53;9.40;;;5.54;;
73132;SDS011;61320;52.008;4.530;2023-01-15T07:21:19;8.28;;;4.87;;
73132;SDS011;61320;52.008;4.530;2023-01-15T07:23:46;9.38;;;5.46;;
73132;SDS011;61320;52.008;4.530;2023-01-15T07:26:11;11.19;;;6.46;;
73132;SDS011;61320;52.008;4.530;2023-01-15T07:28:36;10.74;;;6.25;;
73132;SDS011;61320;52.008;4.530;2023-01-15T07:31:02;9.67;;;5.66;;
73132;SDS011;61320;52.008;4.530;2023-01-15T07:33:28;9.30;;;5.43;;
73132;SDS011;61320;52.008;4.530;2023-01-15T07:35:54;8.07;;;4.73;;
73132;SDS011;61320;52.008;4.530;2023-01-15T07:38:21;9.29;;;5.43;;
73132;SDS011;61320;52.008;4.530;2023-01-15T07:40:48;9.11;;;5.31;;
73132;SDS011;61320;52.008;4.530;2023-01-15T07:43:33;9.00;;;5.26;;
73132;SDS011;61320;52.008;4.530;2023-01-15T07:46:18;9.26;;;5.37;;
73132;SDS011;61320;52.008;4.530;2023-01-15T07:49:02;9.79;;;5.71;;
73132;SDS011;61320;52.008;4.530;2023-01-15T07:51:51;10.23;;;5.99;;
73132;SDS011;61320;52.008;4.530;2023-01-15T07:54:16;9.82;;;5.80;;
73132;SDS011;61320;52.008;4.530;2023-01-15T07:56:42;9.79;;;5.83;;
73132;SDS011;61320;52.008;4.530;2023-01-15T07:59:07;11.04;;;6.55;;
73132;SDS011;61320;52.008;4.530;2023-01-15T08:01:33;10.11;;;5.99;;
73132;SDS011;61320;52.008;4.530;2023-01-15T08:03:58;9.45;;;5.61;;
73132;SDS011;61320;52.008;4.530;2023-01-15T08:06:23;9.81;;;5.84;;
73132;SDS011;61320;52.008;4.530;2023-01-15T08:08:49;9.21;;;5.47;;
73132;SDS011;61320;52.008;4.530;2023-01-15T08:11:14;8.46;;;5.07;;
73132;SDS011;61320;52.008;4.530;2023-01-15T08:13:58;8.60;;;5.16;;
73132;SDS011;61320;52.008;4.530;2023-01-15T08:16:42;9.02;;;5.36;;
73132;SDS011;61320;52.008;4.530;2023-01-15T08:19:08;8.72;;;5.19;;
73132;SDS011;61320;52.008;4.530;2023-01-15T08:21:33;8.81;;;5.22;;
73132;SDS011;61320;52.008;4.530;2023-01-15T08:23:59;9.07;;;5.42;;
73132;SDS011;61320;52.008;4.530;2023-01-15T08:26:25;7.92;;;4.74;;
73132;SDS011;61320;52.008;4.530;2023-01-15T08:28:50;8.25;;;4.93;;
73132;SDS011;61320;52.008;4.530;2023-01-15T08:31:16;8.43;;;5.09;;
73132;SDS011;61320;52.008;4.530;2023-01-15T08:33:41;9.28;;;5.58;;
73132;SDS011;61320;52.008;4.530;2023-01-15T08:36:06;8.11;;;4.93;;
73132;SDS011;61320;52.008;4.530;2023-01-15T08:38:32;7.74;;;4.74;;
73132;SDS011;61320;52.008;4.530;2023-01-15T08:40:58;8.17;;;4.97;;
73132;SDS011;61320;52.008;4.530;2023-01-15T08:43:27;9.08;;;5.45;;
73132;SDS011;61320;52.008;4.530;2023-01-15T08:45:55;8.37;;;4.95;;
73132;SDS011;61320;52.008;4.530;2023-01-15T08:48:22;9.27;;;5.48;;
73132;SDS011;61320;52.008;4.530;2023-01-15T08:50:48;9.35;;;5.60;;
73132;SDS011;61320;52.008;4.530;2023-01-15T08:53:15;8.50;;;5.07;;
73132;SDS011;61320;52.008;4.530;2023-01-15T08:55:43;9.79;;;5.84;;
73132;SDS011;61320;52.008;4.530;2023-01-15T08:58:09;9.48;;;5.71;;
73132;SDS011;61320;52.008;4.530;2023-01-15T09:00:34;10.71;;;6.72;;
73132;SDS011;61320;52.008;4.530;2023-01-15T09:03:00;9.32;;;6.02;;
73132;SDS011;61320;52.008;4.530;2023-01-15T09:05:25;8.00;;;5.33;;
73132;SDS011;61320;52.008;4.530;2023-01-15T09:07:52;8.01;;;5.24;;
73132;SDS011;61320;52.008;4.530;2023-01-15T09:10:18;7.84;;;4.97;;
73132;SDS011;61320;52.008;4.530;2023-01-15T09:12:44;9.28;;;5.77;;
73132;SDS011;61320;52.008;4.530;2023-01-15T09:15:10;8.94;;;5.56;;
73132;SDS011;61320;52.008;4.530;2023-01-15T09:17:35;8.72;;;5.30;;
73132;SDS011;61320;52.008;4.530;2023-01-15T09:20:05;8.85;;;5.42;;
73132;SDS011;61320;52.008;4.530;2023-01-15T09:22:31;8.34;;;5.11;;
73132;SDS011;61320;52.008;4.530;2023-01-15T09:24:57;10.89;;;6.63;;
73132;SDS011;61320;52.008;4.530;2023-01-15T09:27:22;8.68;;;5.41;;
73132;SDS011;61320;52.008;4.530;2023-01-15T09:29:48;8.28;;;5.20;;
73132;SDS011;61320;52.008;4.530;2023-01-15T09:32:13;7.54;;;4.77;;
73132;SDS011;61320;52.008;4.530;2023-01-15T09:34:39;7.72;;;4.77;;
73132;SDS011;61320;52.008;4.530;2023-01-15T09:37:04;9.39;;;5.81;;
73132;SDS011;61320;52.008;4.530;2023-01-15T09:39:30;9.04;;;5.58;;
73132;SDS011;61320;52.008;4.530;2023-01-15T09:42:03;8.57;;;5.32;;
73132;SDS011;61320;52.008;4.530;2023-01-15T09:53:21;6.70;;;4.59;;
73132;SDS011;61320;52.008;4.530;2023-01-15T09:56:18;7.24;;;4.79;;
73132;SDS011;61320;52.008;4.530;2023-01-15T09:58:47;8.66;;;5.44;;
73132;SDS011;61320;52.008;4.530;2023-01-15T10:01:17;10.82;;;6.62;;
73132;SDS011;61320;52.008;4.530;2023-01-15T10:03:49;8.54;;;5.21;;
73132;SDS011;61320;52.008;4.530;2023-01-15T10:06:29;9.83;;;6.24;;
73132;SDS011;61320;52.008;4.530;2023-01-15T10:09:22;8.87;;;5.57;;
73132;SDS011;61320;52.008;4.530;2023-01-15T10:12:00;7.71;;;4.95;;
73132;SDS011;61320;52.008;4.530;2023-01-15T10:20:22;9.97;;;5.91;;
73132;SDS011;61320;52.008;4.530;2023-01-15T10:25:41;8.85;;;5.26;;
73132;SDS011;61320;52.008;4.530;2023-01-15T10:28:16;8.55;;;5.16;;
73132;SDS011;61320;52.008;4.530;2023-01-15T10:30:52;10.50;;;6.80;;
73132;SDS011;61320;52.008;4.530;2023-01-15T10:39:18;8.11;;;5.35;;
73132;SDS011;61320;52.008;4.530;2023-01-15T10:41:57;7.50;;;4.77;;
73132;SDS011;61320;52.008;4.530;2023-01-15T10:44:47;6.62;;;4.10;;
73132;SDS011;61320;52.008;4.530;2023-01-15T10:47:28;7.82;;;4.76;;
73132;SDS011;61320;52.008;4.530;2023-01-15T10:50:00;8.82;;;5.31;;
73132;SDS011;61320;52.008;4.530;2023-01-15T10:52:30;8.50;;;5.10;;
73132;SDS011;61320;52.008;4.530;2023-01-15T11:00:21;10.64;;;6.41;;
73132;SDS011;61320;52.008;4.530;2023-01-15T11:02:49;8.84;;;5.38;;
73132;SDS011;61320;52.008;4.530;2023-01-15T11:05:32;8.81;;;5.40;;
73132;SDS011;61320;52.008;4.530;2023-01-15T11:08:01;8.81;;;5.39;;
73132;SDS011;61320;52.008;4.530;2023-01-15T11:10:31;8.93;;;5.50;;
73132;SDS011;61320;52.008;4.530;2023-01-15T11:12:59;9.08;;;5.52;;
73132;SDS011;61320;52.008;4.530;2023-01-15T11:15:54;9.95;;;5.90;;
73132;SDS011;61320;52.008;4.530;2023-01-15T11:18:39;10.52;;;6.33;;
73132;SDS011;61320;52.008;4.530;2023-01-15T11:21:26;8.99;;;5.43;;
73132;SDS011;61320;52.008;4.530;2023-01-15T11:23:54;9.45;;;5.59;;
73132;SDS011;61320;52.008;4.530;2023-01-15T11:26:23;11.32;;;6.71;;
73132;SDS011;61320;52.008;4.530;2023-01-15T11:28:52;9.75;;;5.87;;
73132;SDS011;61320;52.008;4.530;2023-01-15T11:31:19;9.45;;;5.75;;
73132;SDS011;61320;52.008;4.530;2023-01-15T11:33:59;8.50;;;5.25;;
73132;SDS011;61320;52.008;4.530;2023-01-15T11:36:26;9.03;;;5.61;;
73132;SDS011;61320;52.008;4.530;2023-01-15T11:38:54;10.37;;;6.46;;
73132;SDS011;61320;52.008;4.530;2023-01-15T11:41:33;9.75;;;6.04;;
73132;SDS011;61320;52.008;4.530;2023-01-15T11:44:26;10.02;;;6.30;;
73132;SDS011;61320;52.008;4.530;2023-01-15T11:47:15;9.01;;;5.66;;
73132;SDS011;61320;52.008;4.530;2023-01-15T11:50:00;9.93;;;6.21;;
73132;SDS011;61320;52.008;4.530;2023-01-15T11:52:45;9.27;;;5.89;;
73132;SDS011;61320;52.008;4.530;2023-01-15T11:55:18;10.27;;;6.50;;
73132;SDS011;61320;52.008;4.530;2023-01-15T11:57:47;9.78;;;6.21;;
73132;SDS011;61320;52.008;4.530;2023-01-15T12:02:52;9.13;;;5.61;;
73132;SDS011;61320;52.008;4.530;2023-01-15T12:05:26;9.05;;;5.52;;
73132;SDS011;61320;52.008;4.530;2023-01-15T12:08:00;9.83;;;6.08;;
73132;SDS011;61320;52.008;4.530;2023-01-15T12:10:48;7.71;;;4.66;;
73132;SDS011;61320;52.008;4.530;2023-01-15T12:16:39;10.24;;;6.12;;
73132;SDS011;61320;52.008;4.530;2023-01-15T12:24:52;8.94;;;5.32;;
73132;SDS011;61320;52.008;4.530;2023-01-15T12:30:27;8.66;;;5.16;;
73132;SDS011;61320;52.008;4.530;2023-01-15T12:33:26;10.08;;;5.91;;
73132;SDS011;61320;52.008;4.530;2023-01-15T12:36:24;9.06;;;5.36;;
73132;SDS011;61320;52.008;4.530;2023-01-15T12:39:06;9.26;;;5.55;;
73132;SDS011;61320;52.008;4.530;2023-01-15T12:41:49;8.72;;;5.32;;
73132;SDS011;61320;52.008;4.530;2023-01-15T12:44:49;8.59;;;5.28;;
73132;SDS011;61320;52.008;4.530;2023-01-15T12:47:44;8.09;;;5.00;;
73132;SDS011;61320;52.008;4.530;2023-01-15T12:55:59;10.62;;;6.27;;
73132;SDS011;61320;52.008;4.530;2023-01-15T13:06:27;8.54;;;5.11;;
73132;SDS011;61320;52.008;4.530;2023-01-15T13:08:55;8.32;;;5.10;;
73132;SDS011;61320;52.008;4.530;2023-01-15T13:11:27;8.64;;;5.28;;
73132;SDS011;61320;52.008;4.530;2023-01-15T13:13:53;9.44;;;5.71;;
73132;SDS011;61320;52.008;4.530;2023-01-15T13:16:29;9.01;;;5.48;;
73132;SDS011;61320;52.008;4.530;2023-01-15T13:21:33;9.99;;;6.32;;
73132;SDS011;61320;52.008;4.530;2023-01-15T13:26:42;9.34;;;5.68;;
73132;SDS011;61320;52.008;4.530;2023-01-15T13:32:21;9.79;;;5.93;;
73132;SDS011;61320;52.008;4.530;2023-01-15T13:35:06;8.99;;;5.58;;
73132;SDS011;61320;52.008;4.530;2023-01-15T13:37:47;9.30;;;5.67;;
73132;SDS011;61320;52.008;4.530;2023-01-15T13:40:26;9.91;;;6.04;;
73132;SDS011;61320;52.008;4.530;2023-01-15T13:43:01;8.85;;;5.40;;
73132;SDS011;61320;52.008;4.530;2023-01-15T13:45:33;10.64;;;6.60;;
73132;SDS011;61320;52.008;4.530;2023-01-15T13:48:10;8.38;;;5.17;;
73132;SDS011;61320;52.008;4.530;2023-01-15T13:50:51;9.19;;;5.58;;
73132;SDS011;61320;52.008;4.530;2023-01-15T13:53:25;8.85;;;5.48;;
73132;SDS011;61320;52.008;4.530;2023-01-15T13:56:09;9.43;;;5.74;;
73132;SDS011;61320;52.008;4.530;2023-01-15T13:58:39;9.22;;;5.61;;
73132;SDS011;61320;52.008;4.530;2023-01-15T14:03:53;9.37;;;5.66;;
73132;SDS011;61320;52.008;4.530;2023-01-15T14:09:10;9.57;;;5.79;;
73132;SDS011;61320;52.008;4.530;2023-01-15T14:12:20;8.76;;;5.25;;
73132;SDS011;61320;52.008;4.530;2023-01-15T14:35:49;9.50;;;5.74;;
73132;SDS011;61320;52.008;4.530;2023-01-15T14:38:19;11.45;;;7.07;;
73132;SDS011;61320;52.008;4.530;2023-01-15T14:40:52;10.41;;;6.75;;
73132;SDS011;61320;52.008;4.530;2023-01-15T14:43:20;9.23;;;5.97;;
73132;SDS011;61320;52.008;4.530;2023-01-15T14:45:50;8.59;;;5.71;;
73132;SDS011;61320;52.008;4.530;2023-01-15T14:50:51;9.05;;;5.62;;
73132;SDS011;61320;52.008;4.530;2023-01-15T14:53:23;9.84;;;5.98;;
73132;SDS011;61320;52.008;4.530;2023-01-15T15:07:13;10.01;;;6.46;;
73132;SDS011;61320;52.008;4.530;2023-01-15T15:09:49;8.52;;;5.57;;
73132;SDS011;61320;52.008;4.530;2023-01-15T15:12:41;8.97;;;5.76;;
73132;SDS011;61320;52.008;4.530;2023-01-15T15:15:15;11.73;;;8.45;;
73132;SDS011;61320;52.008;4.530;2023-01-15T15:18:01;6.17;;;5.00;;
73132;SDS011;61320;52.008;4.530;2023-01-15T15:26:02;7.52;;;5.26;;
73132;SDS011;61320;52.008;4.530;2023-01-15T15:28:29;7.85;;;5.64;;
73132;SDS011;61320;52.008;4.530;2023-01-15T15:30:55;8.63;;;6.22;;
73132;SDS011;61320;52.008;4.530;2023-01-15T15:33:28;7.00;;;4.89;;
73132;SDS011;61320;52.008;4.530;2023-01-15T15:36:03;8.61;;;5.71;;
73132;SDS011;61320;52.008;4.530;2023-01-15T15:38:31;8.84;;;5.80;;
73132;SDS011;61320;52.008;4.530;2023-01-15T15:41:01;9.27;;;6.06;;
73132;SDS011;61320;52.008;4.530;2023-01-15T15:43:40;11.95;;;7.64;;
73132;SDS011;61320;52.008;4.530;2023-01-15T15:46:38;11.01;;;8.07;;
73132;SDS011;61320;52.008;4.530;2023-01-15T15:49:39;8.08;;;5.58;;
73132;SDS011;61320;52.008;4.530;2023-01-15T15:52:16;8.72;;;5.76;;
73132;SDS011;61320;52.008;4.530;2023-01-15T15:54:56;9.65;;;6.35;;
73132;SDS011;61320;52.008;4.530;2023-01-15T15:57:26;8.97;;;5.93;;
73132;SDS011;61320;52.008;4.530;2023-01-15T15:59:55;9.88;;;6.78;;
73132;SDS011;61320;52.008;4.530;2023-01-15T16:02:25;9.30;;;6.51;;
73132;SDS011;61320;52.008;4.530;2023-01-15T16:07:42;8.24;;;6.47;;
73132;SDS011;61320;52.008;4.530;2023-01-15T16:10:16;7.18;;;6.01;;
73132;SDS011;61320;52.008;4.530;2023-01-15T16:12:49;6.60;;;5.67;;
73132;SDS011;61320;52.008;4.530;2023-01-15T16:15:17;5.97;;;5.51;;
73132;SDS011;61320;52.008;4.530;2023-01-15T16:17:55;5.67;;;5.05;;
73132;SDS011;61320;52.008;4.530;2023-01-15T16:20:22;5.74;;;5.09;;
73132;SDS011;61320;52.008;4.530;2023-01-15T16:22:56;5.56;;;5.12;;
73132;SDS011;61320;52.008;4.530;2023-01-15T16:25:24;5.13;;;4.83;;
73132;SDS011;61320;52.008;4.530;2023-01-15T16:27:51;5.46;;;5.14;;
73132;SDS011;61320;52.008;4.530;2023-01-15T16:30:17;5.01;;;4.70;;
73132;SDS011;61320;52.008;4.530;2023-01-15T16:32:44;6.21;;;5.58;;
73132;SDS011;61320;52.008;4.530;2023-01-15T16:35:23;6.99;;;6.21;;
73132;SDS011;61320;52.008;4.530;2023-01-15T16:37:50;7.14;;;6.50;;
73132;SDS011;61320;52.008;4.530;2023-01-15T16:43:12;9.95;;;9.25;;
73132;SDS011;61320;52.008;4.530;2023-01-15T16:45:55;6.91;;;6.68;;
73132;SDS011;61320;52.008;4.530;2023-01-15T16:48:28;4.92;;;4.65;;
73132;SDS011;61320;52.008;4.530;2023-01-15T16:53:57;4.47;;;3.91;;
73132;SDS011;61320;52.008;4.530;2023-01-15T16:56:47;5.02;;;4.27;;
73132;SDS011;61320;52.008;4.530;2023-01-15T16:59:17;4.53;;;3.79;;
73132;SDS011;61320;52.008;4.530;2023-01-15T17:02:14;5.46;;;4.55;;
73132;SDS011;61320;52.008;4.530;2023-01-15T17:04:46;4.93;;;4.24;;
73132;SDS011;61320;52.008;4.530;2023-01-15T17:07:15;4.47;;;3.83;;
73132;SDS011;61320;52.008;4.530;2023-01-15T17:09:48;5.40;;;4.66;;
73132;SDS011;61320;52.008;4.530;2023-01-15T17:17:41;8.87;;;7.87;;
73132;SDS011;61320;52.008;4.530;2023-01-15T17:20:08;9.76;;;8.56;;
73132;SDS011;61320;52.008;4.530;2023-01-15T17:22:34;10.57;;;9.32;;
73132;SDS011;61320;52.008;4.530;2023-01-15T17:25:18;8.91;;;7.72;;
73132;SDS011;61320;52.008;4.530;2023-01-15T17:27:55;7.07;;;6.21;;
73132;SDS011;61320;52.008;4.530;2023-01-15T17:30:23;9.64;;;8.55;;
73132;SDS011;61320;52.008;4.530;2023-01-15T17:32:55;7.63;;;6.70;;
73132;SDS011;61320;52.008;4.530;2023-01-15T17:35:35;4.09;;;3.66;;
73132;SDS011;61320;52.008;4.530;2023-01-15T17:38:02;3.85;;;3.49;;
73132;SDS011;61320;52.008;4.530;2023-01-15T17:40:29;4.07;;;3.66;;